DRZA/AJY METAR and TAF weather

Enter ICAO airport designator
Station Type Date Time Source
DRZA METAR 2018/10/22 16:00 UTC NOAA

DRZA 221600Z 08014KT CAVOK 39/07 Q1011


Station Type Date Time Source
DRZA Decoded METAR 2018/10/22 16:00 UTC NOAA

Agadez, Niger (DRZA) 16-58N 007-59E 502M
Oct 22, 2018 - 12:00 PM EDT / 2018.10.22 1600 UTC
Wind: from the E (080 degrees) at 16 MPH (14 KT):0
Visibility: greater than 7 mile(s):0
Temperature: 102 F (39 C)
Dew Point: 44 F (7 C)
Relative Humidity: 14%
Pressure (altimeter): 29.85 in. Hg (1011 hPa)
ob: DRZA 221600Z 08014KT CAVOK 39/07 Q1011
cycle: 16

Station Type Date Time Source
DRZA TAF 2018/10/22 12:21 UTC NOAA

TAF DRZA 221100Z 2212/2312 10010KT CAVOK
TEMPO 2212/2218 12020KT 4500 BLDU


Example: see airport list